sensor_id;sensor_type;location;lat;lon;timestamp;pressure;altitude;pressure_sealevel;temperature;humidity
66398;BME280;54877;51.504;3.894;2023-04-07T00:01:18;101622.41;;;11.90;69.23
66398;BME280;54877;51.504;3.894;2023-04-07T00:03:43;101621.59;;;11.88;69.38
66398;BME280;54877;51.504;3.894;2023-04-07T00:06:08;101621.59;;;11.88;69.21
66398;BME280;54877;51.504;3.894;2023-04-07T00:08:34;101626.84;;;11.89;69.29
66398;BME280;54877;51.504;3.894;2023-04-07T00:10:59;101625.00;;;11.91;68.98
66398;BME280;54877;51.504;3.894;2023-04-07T00:13:25;101625.06;;;11.90;68.77
66398;BME280;54877;51.504;3.894;2023-04-07T00:15:51;101632.22;;;11.88;68.78
66398;BME280;54877;51.504;3.894;2023-04-07T00:18:16;101629.63;;;11.86;68.73
66398;BME280;54877;51.504;3.894;2023-04-07T00:20:41;101630.56;;;11.85;68.67
66398;BME280;54877;51.504;3.894;2023-04-07T00:23:07;101636.81;;;11.84;68.39
66398;BME280;54877;51.504;3.894;2023-04-07T00:25:32;101640.38;;;11.83;68.58
66398;BME280;54877;51.504;3.894;2023-04-07T00:27:57;101632.41;;;11.83;68.19
66398;BME280;54877;51.504;3.894;2023-04-07T00:30:22;101632.53;;;11.80;68.41
66398;BME280;54877;51.504;3.894;2023-04-07T00:32:48;101636.97;;;11.79;68.13
66398;BME280;54877;51.504;3.894;2023-04-07T00:35:15;101637.94;;;11.78;68.20
66398;BME280;54877;51.504;3.894;2023-04-07T00:37:40;101632.75;;;11.75;68.29
66398;BME280;54877;51.504;3.894;2023-04-07T00:40:06;101634.59;;;11.73;68.23
66398;BME280;54877;51.504;3.894;2023-04-07T00:42:32;101633.75;;;11.73;68.04
66398;BME280;54877;51.504;3.894;2023-04-07T00:44:57;101633.97;;;11.67;68.06
66398;BME280;54877;51.504;3.894;2023-04-07T00:47:23;101630.50;;;11.65;68.15
66398;BME280;54877;51.504;3.894;2023-04-07T00:49:48;101634.00;;;11.65;68.00
66398;BME280;54877;51.504;3.894;2023-04-07T00:52:13;101627.91;;;11.63;67.89
66398;BME280;54877;51.504;3.894;2023-04-07T00:54:40;101631.50;;;11.62;67.89
66398;BME280;54877;51.504;3.894;2023-04-07T00:57:07;101630.69;;;11.60;68.09
66398;BME280;54877;51.504;3.894;2023-04-07T00:59:33;101632.63;;;11.57;68.03
66398;BME280;54877;51.504;3.894;2023-04-07T01:04:54;101632.91;;;11.49;68.00
66398;BME280;54877;51.504;3.894;2023-04-07T01:07:31;101634.69;;;11.49;68.37
66398;BME280;54877;51.504;3.894;2023-04-07T01:10:04;101632.13;;;11.47;68.05
66398;BME280;54877;51.504;3.894;2023-04-07T01:12:35;101628.69;;;11.45;68.46
66398;BME280;54877;51.504;3.894;2023-04-07T01:15:08;101634.09;;;11.42;68.50
66398;BME280;54877;51.504;3.894;2023-04-07T01:17:36;101635.00;;;11.41;68.69
66398;BME280;54877;51.504;3.894;2023-04-07T01:20:05;101633.34;;;11.39;68.68
66398;BME280;54877;51.504;3.894;2023-04-07T01:30:34;101639.66;;;11.36;68.20
66398;BME280;54877;51.504;3.894;2023-04-07T01:33:03;101643.22;;;11.35;68.11
66398;BME280;54877;51.504;3.894;2023-04-07T01:35:31;101643.22;;;11.35;68.28
66398;BME280;54877;51.504;3.894;2023-04-07T01:37:58;101653.97;;;11.32;68.22
66398;BME280;54877;51.504;3.894;2023-04-07T01:40:25;101645.19;;;11.30;68.34
66398;BME280;54877;51.504;3.894;2023-04-07T01:42:52;101644.50;;;11.25;68.35
66398;BME280;54877;51.504;3.894;2023-04-07T01:45:18;101649.88;;;11.24;68.25
66398;BME280;54877;51.504;3.894;2023-04-07T01:47:44;101640.19;;;11.23;68.45
66398;BME280;54877;51.504;3.894;2023-04-07T01:50:11;101640.38;;;11.18;68.46
66398;BME280;54877;51.504;3.894;2023-04-07T01:52:37;101648.34;;;11.18;68.77
66398;BME280;54877;51.504;3.894;2023-04-07T01:55:04;101648.38;;;11.16;68.68
66398;BME280;54877;51.504;3.894;2023-04-07T01:57:30;101643.16;;;11.15;68.59
66398;BME280;54877;51.504;3.894;2023-04-07T01:59:56;101645.94;;;11.12;68.69
66398;BME280;54877;51.504;3.894;2023-04-07T02:02:22;101646.03;;;11.09;68.50
66398;BME280;54877;51.504;3.894;2023-04-07T02:04:57;101648.72;;;11.07;68.22
66398;BME280;54877;51.504;3.894;2023-04-07T02:07:40;101648.00;;;11.04;68.26
66398;BME280;54877;51.504;3.894;2023-04-07T02:10:11;101647.06;;;11.05;68.08
66398;BME280;54877;51.504;3.894;2023-04-07T02:12:39;101653.31;;;11.04;68.03
66398;BME280;54877;51.504;3.894;2023-04-07T02:15:09;101644.59;;;11.00;67.94
66398;BME280;54877;51.504;3.894;2023-04-07T02:17:37;101655.28;;;10.99;68.14
66398;BME280;54877;51.504;3.894;2023-04-07T02:20:07;101657.97;;;10.97;68.00
66398;BME280;54877;51.504;3.894;2023-04-07T02:22:35;101652.66;;;10.97;67.82
66398;BME280;54877;51.504;3.894;2023-04-07T02:25:02;101662.41;;;10.97;67.62
66398;BME280;54877;51.504;3.894;2023-04-07T02:27:41;101655.41;;;10.96;67.64
66398;BME280;54877;51.504;3.894;2023-04-07T02:30:06;101660.81;;;10.93;67.31
66398;BME280;54877;51.504;3.894;2023-04-07T02:32:32;101658.19;;;10.91;67.42
66398;BME280;54877;51.504;3.894;2023-04-07T02:34:58;101652.97;;;10.90;67.38
66398;BME280;54877;51.504;3.894;2023-04-07T02:37:23;101652.19;;;10.88;67.11
66398;BME280;54877;51.504;3.894;2023-04-07T02:39:49;101648.59;;;10.89;66.96
66398;BME280;54877;51.504;3.894;2023-04-07T02:42:14;101654.09;;;10.83;66.81
66398;BME280;54877;51.504;3.894;2023-04-07T02:44:40;101648.09;;;10.79;67.03
66398;BME280;54877;51.504;3.894;2023-04-07T02:47:05;101650.78;;;10.78;67.16
66398;BME280;54877;51.504;3.894;2023-04-07T02:49:30;101649.09;;;10.75;67.27
66398;BME280;54877;51.504;3.894;2023-04-07T02:51:56;101660.69;;;10.73;67.31
66398;BME280;54877;51.504;3.894;2023-04-07T02:54:21;101662.66;;;10.68;67.25
66398;BME280;54877;51.504;3.894;2023-04-07T02:56:46;101658.38;;;10.63;67.38
66398;BME280;54877;51.504;3.894;2023-04-07T02:59:12;101663.66;;;10.63;67.63
66398;BME280;54877;51.504;3.894;2023-04-07T03:01:37;101661.88;;;10.64;67.51
66398;BME280;54877;51.504;3.894;2023-04-07T03:04:04;101658.38;;;10.63;67.78
66398;BME280;54877;51.504;3.894;2023-04-07T03:06:30;101664.53;;;10.64;67.83
66398;BME280;54877;51.504;3.894;2023-04-07T03:08:55;101661.97;;;10.63;67.71
66398;BME280;54877;51.504;3.894;2023-04-07T03:11:20;101664.66;;;10.61;67.62
66398;BME280;54877;51.504;3.894;2023-04-07T03:13:46;101666.41;;;10.60;67.95
66398;BME280;54877;51.504;3.894;2023-04-07T03:16:11;101668.28;;;10.58;68.02
66398;BME280;54877;51.504;3.894;2023-04-07T03:18:36;101665.63;;;10.58;67.96
66398;BME280;54877;51.504;3.894;2023-04-07T03:21:02;101675.53;;;10.53;67.99
66398;BME280;54877;51.504;3.894;2023-04-07T03:23:27;101667.47;;;10.56;67.97
66398;BME280;54877;51.504;3.894;2023-04-07T03:25:53;101663.94;;;10.56;68.16
66398;BME280;54877;51.504;3.894;2023-04-07T03:28:18;101670.13;;;10.56;68.03
66398;BME280;54877;51.504;3.894;2023-04-07T03:30:44;101667.41;;;10.58;68.40
66398;BME280;54877;51.504;3.894;2023-04-07T03:33:09;101669.13;;;10.59;67.95
66398;BME280;54877;51.504;3.894;2023-04-07T03:35:35;101674.50;;;10.57;68.17
66398;BME280;54877;51.504;3.894;2023-04-07T03:38:00;101668.38;;;10.55;68.08
66398;BME280;54877;51.504;3.894;2023-04-07T03:40:25;101670.13;;;10.56;68.45
66398;BME280;54877;51.504;3.894;2023-04-07T03:42:51;101666.56;;;10.57;68.20
66398;BME280;54877;51.504;3.894;2023-04-07T03:45:16;101671.84;;;10.57;68.55
66398;BME280;54877;51.504;3.894;2023-04-07T03:47:41;101668.28;;;10.58;68.47
66398;BME280;54877;51.504;3.894;2023-04-07T03:50:07;101673.56;;;10.58;68.75
66398;BME280;54877;51.504;3.894;2023-04-07T03:52:32;101672.59;;;10.61;68.69
66398;BME280;54877;51.504;3.894;2023-04-07T03:54:58;101673.53;;;10.60;68.80
66398;BME280;54877;51.504;3.894;2023-04-07T03:57:23;101679.56;;;10.63;68.73
66398;BME280;54877;51.504;3.894;2023-04-07T03:59:48;101676.75;;;10.68;68.51
66398;BME280;54877;51.504;3.894;2023-04-07T04:02:15;101683.72;;;10.71;68.46
66398;BME280;54877;51.504;3.894;2023-04-07T04:04:40;101679.22;;;10.73;68.81
66398;BME280;54877;51.504;3.894;2023-04-07T04:07:06;101682.84;;;10.70;68.66
66398;BME280;54877;51.504;3.894;2023-04-07T04:09:31;101671.16;;;10.76;68.83
66398;BME280;54877;51.504;3.894;2023-04-07T04:11:56;101675.44;;;10.80;68.66
66398;BME280;54877;51.504;3.894;2023-04-07T04:14:22;101677.16;;;10.81;68.64
66398;BME280;54877;51.504;3.894;2023-04-07T04:16:47;101685.78;;;10.86;68.82
66398;BME280;54877;51.504;3.894;2023-04-07T04:19:12;101683.97;;;10.88;68.69
66398;BME280;54877;51.504;3.894;2023-04-07T04:21:38;101676.81;;;10.90;68.58
66398;BME280;54877;51.504;3.894;2023-04-07T04:24:03;101684.66;;;10.93;68.63
66398;BME280;54877;51.504;3.894;2023-04-07T04:26:28;101689.75;;;10.97;68.51
66398;BME280;54877;51.504;3.894;2023-04-07T04:28:54;101697.78;;;10.96;69.08
66398;BME280;54877;51.504;3.894;2023-04-07T04:31:19;101689.88;;;10.94;69.13
66398;BME280;54877;51.504;3.894;2023-04-07T04:33:45;101689.38;;;10.85;69.76
66398;BME280;54877;51.504;3.894;2023-04-07T04:36:10;101691.78;;;10.91;69.78
66398;BME280;54877;51.504;3.894;2023-04-07T04:38:36;101692.59;;;10.93;69.59
66398;BME280;54877;51.504;3.894;2023-04-07T04:41:01;101689.00;;;10.94;70.01
66398;BME280;54877;51.504;3.894;2023-04-07T04:43:26;101696.97;;;10.94;69.77
66398;BME280;54877;51.504;3.894;2023-04-07T04:45:52;101698.06;;;10.88;70.32
66398;BME280;54877;51.504;3.894;2023-04-07T04:48:17;101703.31;;;10.90;70.22
66398;BME280;54877;51.504;3.894;2023-04-07T04:50:43;101705.38;;;10.82;70.44
66398;BME280;54877;51.504;3.894;2023-04-07T04:53:08;101703.59;;;10.82;70.12
66398;BME280;54877;51.504;3.894;2023-04-07T04:55:34;101705.38;;;10.82;69.80
66398;BME280;54877;51.504;3.894;2023-04-07T04:58:00;101708.72;;;10.87;69.78
66398;BME280;54877;51.504;3.894;2023-04-07T05:00:25;101710.50;;;10.86;69.73
66398;BME280;54877;51.504;3.894;2023-04-07T05:02:50;101713.09;;;10.88;69.70
66398;BME280;54877;51.504;3.894;2023-04-07T05:05:16;101699.59;;;10.94;69.27
66398;BME280;54877;51.504;3.894;2023-04-07T05:07:41;101716.25;;;10.97;69.11
66398;BME280;54877;51.504;3.894;2023-04-07T05:10:07;101703.09;;;10.96;69.78
66398;BME280;54877;51.504;3.894;2023-04-07T05:12:32;101702.81;;;11.02;69.45
66398;BME280;54877;51.504;3.894;2023-04-07T05:14:58;101712.63;;;11.00;69.64
66398;BME280;54877;51.504;3.894;2023-04-07T05:17:23;101714.78;;;10.90;69.81
66398;BME280;54877;51.504;3.894;2023-04-07T05:19:48;101716.84;;;11.05;69.24
66398;BME280;54877;51.504;3.894;2023-04-07T05:22:13;101719.91;;;10.95;69.61
66398;BME280;54877;51.504;3.894;2023-04-07T05:24:39;101723.53;;;10.92;69.40
66398;BME280;54877;51.504;3.894;2023-04-07T05:27:04;101724.84;;;10.81;70.03
66398;BME280;54877;51.504;3.894;2023-04-07T05:29:30;101725.91;;;10.75;70.33
66398;BME280;54877;51.504;3.894;2023-04-07T05:31:55;101733.47;;;10.86;69.85
66398;BME280;54877;51.504;3.894;2023-04-07T05:34:21;101731.75;;;10.85;69.99
66398;BME280;54877;51.504;3.894;2023-04-07T05:36:46;101722.66;;;10.92;69.94
66398;BME280;54877;51.504;3.894;2023-04-07T05:39:11;101732.22;;;10.96;69.71
66398;BME280;54877;51.504;3.894;2023-04-07T05:41:37;101736.47;;;11.00;69.67
66398;BME280;54877;51.504;3.894;2023-04-07T05:44:02;101731.41;;;10.94;70.07
66398;BME280;54877;51.504;3.894;2023-04-07T05:46:27;101729.31;;;11.02;69.61
66398;BME280;54877;51.504;3.894;2023-04-07T05:48:53;101735.50;;;11.02;69.41
66398;BME280;54877;51.504;3.894;2023-04-07T05:51:19;101749.69;;;11.01;69.57
66398;BME280;54877;51.504;3.894;2023-04-07T05:53:44;101738.16;;;11.02;69.38
66398;BME280;54877;51.504;3.894;2023-04-07T05:56:10;101747.19;;;10.97;69.55
66398;BME280;54877;51.504;3.894;2023-04-07T05:58:35;101744.31;;;11.03;69.70
66398;BME280;54877;51.504;3.894;2023-04-07T06:01:00;101747.84;;;11.03;69.70
66398;BME280;54877;51.504;3.894;2023-04-07T06:03:25;101754.69;;;11.09;69.21
66398;BME280;54877;51.504;3.894;2023-04-07T06:05:51;101750.25;;;11.09;69.00
66398;BME280;54877;51.504;3.894;2023-04-07T06:08:16;101753.91;;;11.07;69.20
66398;BME280;54877;51.504;3.894;2023-04-07T06:10:41;101764.72;;;11.01;69.27
66398;BME280;54877;51.504;3.894;2023-04-07T06:13:08;101759.09;;;11.10;69.38
66398;BME280;54877;51.504;3.894;2023-04-07T06:15:33;101755.28;;;11.17;69.42
66398;BME280;54877;51.504;3.894;2023-04-07T06:17:59;101761.25;;;11.22;69.57
66398;BME280;54877;51.504;3.894;2023-04-07T06:20:24;101760.34;;;11.23;69.40
66398;BME280;54877;51.504;3.894;2023-04-07T06:22:51;101753.75;;;11.33;69.08
66398;BME280;54877;51.504;3.894;2023-04-07T06:25:17;101759.84;;;11.35;68.72
66398;BME280;54877;51.504;3.894;2023-04-07T06:27:42;101762.06;;;11.24;69.47
66398;BME280;54877;51.504;3.894;2023-04-07T06:30:08;101771.34;;;11.36;69.54
66398;BME280;54877;51.504;3.894;2023-04-07T06:32:34;101766.56;;;11.45;69.32
66398;BME280;54877;51.504;3.894;2023-04-07T06:34:59;101770.13;;;11.44;69.32
66398;BME280;54877;51.504;3.894;2023-04-07T06:37:25;101778.19;;;11.41;69.77
66398;BME280;54877;51.504;3.894;2023-04-07T06:39:50;101780.50;;;11.50;69.67
66398;BME280;54877;51.504;3.894;2023-04-07T06:42:16;101775.94;;;11.54;69.98
66398;BME280;54877;51.504;3.894;2023-04-07T06:44:41;101775.94;;;11.54;69.81
66398;BME280;54877;51.504;3.894;2023-04-07T06:47:07;101780.94;;;11.61;69.97
66398;BME280;54877;51.504;3.894;2023-04-07T06:49:33;101784.94;;;11.73;69.63
66398;BME280;54877;51.504;3.894;2023-04-07T06:51:58;101784.25;;;11.68;69.45
66398;BME280;54877;51.504;3.894;2023-04-07T06:54:23;101789.03;;;11.82;69.45
66398;BME280;54877;51.504;3.894;2023-04-07T06:56:49;101784.28;;;11.90;69.15
66398;BME280;54877;51.504;3.894;2023-04-07T06:59:15;101793.66;;;11.98;69.07
66398;BME280;54877;51.504;3.894;2023-04-07T07:01:40;101792.56;;;12.04;69.26
66398;BME280;54877;51.504;3.894;2023-04-07T07:04:06;101803.00;;;12.07;68.76
66398;BME280;54877;51.504;3.894;2023-04-07T07:06:31;101797.00;;;12.03;68.65
66398;BME280;54877;51.504;3.894;2023-04-07T07:08:57;101810.19;;;12.05;69.04
66398;BME280;54877;51.504;3.894;2023-04-07T07:11:22;101801.19;;;12.09;68.80
66398;BME280;54877;51.504;3.894;2023-04-07T07:13:48;101808.94;;;12.13;68.24
66398;BME280;54877;51.504;3.894;2023-04-07T07:16:13;101814.59;;;12.06;68.47
66398;BME280;54877;51.504;3.894;2023-04-07T07:18:38;101817.34;;;12.03;68.50
66398;BME280;54877;51.504;3.894;2023-04-07T07:21:04;101817.59;;;11.97;68.76
66398;BME280;54877;51.504;3.894;2023-04-07T07:23:29;101811.59;;;12.13;68.27
66398;BME280;54877;51.504;3.894;2023-04-07T07:25:54;101821.31;;;12.14;68.21
66398;BME280;54877;51.504;3.894;2023-04-07T07:28:20;101822.19;;;12.15;68.52
66398;BME280;54877;51.504;3.894;2023-04-07T07:30:45;101817.13;;;12.09;68.27
66398;BME280;54877;51.504;3.894;2023-04-07T07:33:11;101826.78;;;12.10;68.04
66398;BME280;54877;51.504;3.894;2023-04-07T07:35:37;101824.13;;;12.10;68.08
66398;BME280;54877;51.504;3.894;2023-04-07T07:38:02;101826.41;;;12.19;67.57
66398;BME280;54877;51.504;3.894;2023-04-07T07:40:28;101836.16;;;12.18;67.39
66398;BME280;54877;51.504;3.894;2023-04-07T07:42:53;101834.88;;;12.07;67.59
66398;BME280;54877;51.504;3.894;2023-04-07T07:45:18;101838.22;;;12.12;67.75
66398;BME280;54877;51.504;3.894;2023-04-07T07:47:44;101852.41;;;12.11;67.87
66398;BME280;54877;51.504;3.894;2023-04-07T07:50:09;101837.13;;;12.17;67.55
66398;BME280;54877;51.504;3.894;2023-04-07T07:52:35;101852.28;;;12.14;67.69
66398;BME280;54877;51.504;3.894;2023-04-07T07:55:01;101847.66;;;12.19;67.32
66398;BME280;54877;51.504;3.894;2023-04-07T07:57:26;101849.97;;;12.06;67.51
66398;BME280;54877;51.504;3.894;2023-04-07T07:59:52;101850.69;;;12.10;67.42
66398;BME280;54877;51.504;3.894;2023-04-07T08:02:17;101858.41;;;12.16;67.19
66398;BME280;54877;51.504;3.894;2023-04-07T08:04:43;101857.47;;;12.17;67.26
66398;BME280;54877;51.504;3.894;2023-04-07T08:07:08;101858.75;;;12.07;67.44
66398;BME280;54877;51.504;3.894;2023-04-07T08:09:35;101861.69;;;12.01;67.58
66398;BME280;54877;51.504;3.894;2023-04-07T08:12:01;101865.13;;;12.03;67.73
66398;BME280;54877;51.504;3.894;2023-04-07T08:14:27;101864.34;;;12.01;67.42
66398;BME280;54877;51.504;3.894;2023-04-07T08:16:53;101870.56;;;12.00;67.55
66398;BME280;54877;51.504;3.894;2023-04-07T08:19:18;101873.00;;;11.83;67.95
66398;BME280;54877;51.504;3.894;2023-04-07T08:21:44;101869.06;;;11.93;67.87
66398;BME280;54877;51.504;3.894;2023-04-07T08:24:09;101881.25;;;11.98;67.13
66398;BME280;54877;51.504;3.894;2023-04-07T08:26:34;101874.63;;;12.08;67.21
66398;BME280;54877;51.504;3.894;2023-04-07T08:29:00;101879.84;;;12.11;66.93
66398;BME280;54877;51.504;3.894;2023-04-07T08:31:25;101883.59;;;12.06;66.94
66398;BME280;54877;51.504;3.894;2023-04-07T08:33:51;101887.00;;;12.09;66.24
66398;BME280;54877;51.504;3.894;2023-04-07T08:36:21;101887.94;;;12.07;66.74
66398;BME280;54877;51.504;3.894;2023-04-07T08:38:46;101892.56;;;12.25;65.66
66398;BME280;54877;51.504;3.894;2023-04-07T08:41:12;101890.34;;;12.36;65.90
66398;BME280;54877;51.504;3.894;2023-04-07T08:43:43;101892.78;;;12.41;65.90
66398;BME280;54877;51.504;3.894;2023-04-07T08:46:10;101898.97;;;12.41;65.21
66398;BME280;54877;51.504;3.894;2023-04-07T08:48:37;101892.75;;;12.42;64.01
66398;BME280;54877;51.504;3.894;2023-04-07T08:51:05;101891.69;;;12.46;64.38
66398;BME280;54877;51.504;3.894;2023-04-07T08:53:36;101902.94;;;12.53;63.54
66398;BME280;54877;51.504;3.894;2023-04-07T08:56:08;101894.47;;;12.43;63.46
66398;BME280;54877;51.504;3.894;2023-04-07T08:58:36;101904.03;;;12.47;64.23
66398;BME280;54877;51.504;3.894;2023-04-07T09:01:03;101906.47;;;12.53;64.37
66398;BME280;54877;51.504;3.894;2023-04-07T09:03:30;101911.56;;;12.36;63.88
66398;BME280;54877;51.504;3.894;2023-04-07T09:05:58;101911.22;;;12.45;63.71
66398;BME280;54877;51.504;3.894;2023-04-07T09:08:25;101911.22;;;12.45;64.00
66398;BME280;54877;51.504;3.894;2023-04-07T09:10:50;101916.53;;;12.45;64.23
66398;BME280;54877;51.504;3.894;2023-04-07T09:13:16;101920.41;;;12.36;64.80
66398;BME280;54877;51.504;3.894;2023-04-07T09:15:41;101924.38;;;12.48;65.07
66398;BME280;54877;51.504;3.894;2023-04-07T09:18:07;101920.72;;;12.51;64.57
66398;BME280;54877;51.504;3.894;2023-04-07T09:23:37;101929.97;;;12.62;63.94
66398;BME280;54877;51.504;3.894;2023-04-07T09:26:25;101932.81;;;12.58;64.37
66398;BME280;54877;51.504;3.894;2023-04-07T09:31:22;101934.16;;;12.24;66.13
66398;BME280;54877;51.504;3.894;2023-04-07T09:33:50;101932.72;;;12.39;66.00
66398;BME280;54877;51.504;3.894;2023-04-07T09:36:16;101934.56;;;12.37;65.80
66398;BME280;54877;51.504;3.894;2023-04-07T09:38:42;101938.38;;;12.30;65.25
66398;BME280;54877;51.504;3.894;2023-04-07T09:41:09;101939.72;;;12.40;65.75
66398;BME280;54877;51.504;3.894;2023-04-07T09:43:40;101937.50;;;12.51;65.03
66398;BME280;54877;51.504;3.894;2023-04-07T09:46:12;101936.34;;;12.58;65.24
66398;BME280;54877;51.504;3.894;2023-04-07T09:48:40;101933.13;;;12.50;64.69
66398;BME280;54877;51.504;3.894;2023-04-07T09:51:14;101938.00;;;12.39;65.50
66398;BME280;54877;51.504;3.894;2023-04-07T09:53:47;101927.84;;;12.70;64.87
66398;BME280;54877;51.504;3.894;2023-04-07T09:56:16;101938.50;;;12.70;63.88
66398;BME280;54877;51.504;3.894;2023-04-07T09:58:45;101936.72;;;12.49;63.61
66398;BME280;54877;51.504;3.894;2023-04-07T10:01:12;101927.50;;;12.79;63.34
66398;BME280;54877;51.504;3.894;2023-04-07T10:03:40;101937.00;;;12.85;63.30
66398;BME280;54877;51.504;3.894;2023-04-07T10:06:07;101936.88;;;12.88;62.91
66398;BME280;54877;51.504;3.894;2023-04-07T10:08:33;101934.16;;;12.89;62.56
66398;BME280;54877;51.504;3.894;2023-04-07T10:11:01;101937.44;;;12.74;62.23
66398;BME280;54877;51.504;3.894;2023-04-07T10:13:30;101942.84;;;12.73;62.69
66398;BME280;54877;51.504;3.894;2023-04-07T10:15:57;101942.56;;;12.79;62.59
66398;BME280;54877;51.504;3.894;2023-04-07T10:18:29;101935.50;;;13.00;62.37
66398;BME280;54877;51.504;3.894;2023-04-07T10:20:56;101942.44;;;12.82;62.84
66398;BME280;54877;51.504;3.894;2023-04-07T10:23:38;101954.09;;;13.00;63.04
66398;BME280;54877;51.504;3.894;2023-04-07T10:26:11;101949.41;;;12.84;63.00
66398;BME280;54877;51.504;3.894;2023-04-07T10:28:42;101942.94;;;12.91;63.79
66398;BME280;54877;51.504;3.894;2023-04-07T10:31:10;101959.06;;;12.87;62.76
66398;BME280;54877;51.504;3.894;2023-04-07T10:33:46;101955.31;;;12.71;63.30
66398;BME280;54877;51.504;3.894;2023-04-07T10:36:19;101950.50;;;12.59;63.20
66398;BME280;54877;51.504;3.894;2023-04-07T10:41:33;101965.69;;;12.33;63.77
66398;BME280;54877;51.504;3.894;2023-04-07T10:44:02;101964.22;;;12.48;63.47
66398;BME280;54877;51.504;3.894;2023-04-07T10:49:09;101976.66;;;12.46;64.35
66398;BME280;54877;51.504;3.894;2023-04-07T10:51:35;101980.84;;;12.53;65.23
66398;BME280;54877;51.504;3.894;2023-04-07T10:54:20;101978.78;;;12.60;64.76
66398;BME280;54877;51.504;3.894;2023-04-07T10:59:39;101973.78;;;12.52;65.41
66398;BME280;54877;51.504;3.894;2023-04-07T11:04:49;101973.72;;;12.75;64.82
66398;BME280;54877;51.504;3.894;2023-04-07T11:07:14;101978.78;;;12.81;64.39
66398;BME280;54877;51.504;3.894;2023-04-07T11:09:40;101970.50;;;12.89;62.29
66398;BME280;54877;51.504;3.894;2023-04-07T11:12:06;101968.03;;;12.84;61.32
66398;BME280;54877;51.504;3.894;2023-04-07T11:14:32;101971.78;;;12.79;62.04
66398;BME280;54877;51.504;3.894;2023-04-07T11:17:01;101969.16;;;13.01;61.35
66398;BME280;54877;51.504;3.894;2023-04-07T11:19:27;101972.47;;;13.06;60.61
66398;BME280;54877;51.504;3.894;2023-04-07T11:24:44;101978.81;;;13.02;60.91
66398;BME280;54877;51.504;3.894;2023-04-07T11:27:13;101979.16;;;12.94;61.23
66398;BME280;54877;51.504;3.894;2023-04-07T11:29:39;101986.59;;;13.08;61.32
66398;BME280;54877;51.504;3.894;2023-04-07T11:32:04;101973.16;;;12.89;62.16
66398;BME280;54877;51.504;3.894;2023-04-07T11:34:31;101981.31;;;12.84;62.30
66398;BME280;54877;51.504;3.894;2023-04-07T11:36:58;101983.50;;;12.75;62.62
66398;BME280;54877;51.504;3.894;2023-04-07T11:42:31;101983.59;;;12.93;61.13
66398;BME280;54877;51.504;3.894;2023-04-07T11:45:00;101980.28;;;12.88;61.45
66398;BME280;54877;51.504;3.894;2023-04-07T11:50:03;101980.63;;;13.01;60.36
66398;BME280;54877;51.504;3.894;2023-04-07T11:52:48;101985.09;;;13.01;60.58
66398;BME280;54877;51.504;3.894;2023-04-07T11:55:17;101985.72;;;13.07;60.43
66398;BME280;54877;51.504;3.894;2023-04-07T11:57:46;101990.53;;;12.98;60.30
66398;BME280;54877;51.504;3.894;2023-04-07T12:00:12;101988.53;;;13.03;60.05
66398;BME280;54877;51.504;3.894;2023-04-07T12:02:39;101999.66;;;12.90;59.28
66398;BME280;54877;51.504;3.894;2023-04-07T12:05:05;102002.88;;;12.77;60.10
66398;BME280;54877;51.504;3.894;2023-04-07T12:07:34;102009.31;;;12.71;60.04
66398;BME280;54877;51.504;3.894;2023-04-07T12:10:21;102017.53;;;12.65;60.45
66398;BME280;54877;51.504;3.894;2023-04-07T12:12:49;102023.50;;;12.70;61.30
66398;BME280;54877;51.504;3.894;2023-04-07T12:15:15;102016.25;;;12.97;60.82
66398;BME280;54877;51.504;3.894;2023-04-07T12:17:44;102007.22;;;12.79;60.17
66398;BME280;54877;51.504;3.894;2023-04-07T12:20:11;102017.25;;;12.94;60.00
66398;BME280;54877;51.504;3.894;2023-04-07T12:22:37;102021.81;;;12.69;59.87
66398;BME280;54877;51.504;3.894;2023-04-07T12:25:02;102024.59;;;12.66;59.36
66398;BME280;54877;51.504;3.894;2023-04-07T12:27:28;102020.50;;;12.79;58.92
66398;BME280;54877;51.504;3.894;2023-04-07T12:29:53;102021.56;;;12.75;58.99
66398;BME280;54877;51.504;3.894;2023-04-07T12:32:18;102022.25;;;12.80;59.42
66398;BME280;54877;51.504;3.894;2023-04-07T12:34:44;102024.66;;;12.86;58.57
66398;BME280;54877;51.504;3.894;2023-04-07T12:37:09;102032.31;;;12.72;59.11
66398;BME280;54877;51.504;3.894;2023-04-07T12:39:34;102036.53;;;12.55;59.76
66398;BME280;54877;51.504;3.894;2023-04-07T12:42:00;102039.47;;;12.70;59.87
66398;BME280;54877;51.504;3.894;2023-04-07T12:44:25;102032.31;;;12.72;59.54
66398;BME280;54877;51.504;3.894;2023-04-07T12:46:51;102037.75;;;12.69;60.09
66398;BME280;54877;51.504;3.894;2023-04-07T12:49:16;102036.56;;;12.76;59.92
66398;BME280;54877;51.504;3.894;2023-04-07T12:51:41;102044.28;;;12.82;59.62
66398;BME280;54877;51.504;3.894;2023-04-07T12:54:07;102040.59;;;12.86;58.76
66398;BME280;54877;51.504;3.894;2023-04-07T12:56:32;102037.81;;;12.89;58.33
66398;BME280;54877;51.504;3.894;2023-04-07T12:58:57;102040.09;;;12.77;57.94
66398;BME280;54877;51.504;3.894;2023-04-07T13:01:23;102039.22;;;12.76;58.47
66398;BME280;54877;51.504;3.894;2023-04-07T13:03:48;102037.13;;;12.84;58.40
66398;BME280;54877;51.504;3.894;2023-04-07T13:06:14;102043.25;;;12.86;58.64
66398;BME280;54877;51.504;3.894;2023-04-07T13:08:41;102045.97;;;12.85;59.12
66398;BME280;54877;51.504;3.894;2023-04-07T13:11:06;102051.59;;;12.77;59.15
66398;BME280;54877;51.504;3.894;2023-04-07T13:13:32;102046.16;;;12.80;58.94
66398;BME280;54877;51.504;3.894;2023-04-07T13:15:57;102051.81;;;12.71;59.34
66398;BME280;54877;51.504;3.894;2023-04-07T13:18:23;102049.13;;;12.73;59.26
66398;BME280;54877;51.504;3.894;2023-04-07T13:20:48;102054.16;;;12.57;60.02
66398;BME280;54877;51.504;3.894;2023-04-07T13:23:14;102048.84;;;12.57;59.99